ZA-0099 weather

Holbank Airport
Mpumalanga, South Africa

Public forecast

Using degrees Celsius for public forecast. Weather courtesy of forecast.io.

METAR (pilot weather report)

Report is more than 6 hours old.

Closest report is Ermelo Airport, 14.8 nm (27.5 km) WNW. Retrieved 2019/07/22 09:54 UTC (11 hours ago):

FAEO 220954Z 27011KT CAVOK 15/M01 Q1027

TAF (pilot weather forecast)

Forecast is more than 12 hours old.

Closest forecast is Ermelo Airport, 14.8 nm (27.5 km) WNW. Retrieved 2017/06/05 04:55 UTC (2 years ago):

TAF FAEO 050300Z 0504/0515 09006KT CAVOK TX18/0513ZTN05/0504Z